BAW327 LFMN-EGLL
Flight info
| Callsign | BAW327 |
|---|---|
| Flight time | 1h 38m |
| Altitude | 38000 |
| Route | BADOD8A BADOD DCT NEDRU DCT LTP DCT BULOL DCT IDAVO DCT BAGBI DCT SIZZA DCT LAULY DCT BRY DCT CLM DCT KOPOR DCT ABNUR DCT DIMAL DCT ALESO ALESO1H |
| Aircraft | A20N/M-SDGHIJ1LRWXY/SB1 |
Departure
| Time | 2026-05-05 15:04 |
|---|---|
| Airport | Nice-Côte d'Azur Airport (LFMN) |
Arrival
| Time | 2026-05-05 16:43 |
|---|---|
| Airport | London Heathrow Airport (EGLL) |
| Time | Latitude | Longitude | Altitude | Speed | Heading |
|---|---|---|---|---|---|
| 2026-05-05 14:29 | 43.66403 | 7.21179 | 21 ft | 0 kts | 351° |
| 2026-05-05 14:49 | 43.66401 | 7.21180 | 22 ft | 2 kts | 351° |
| 2026-05-05 14:49 | 43.66375 | 7.21185 | 22 ft | 4 kts | 351° |
| 2026-05-05 14:49 | 43.66349 | 7.21193 | 23 ft | 4 kts | 334° |
| 2026-05-05 14:50 | 43.66330 | 7.21214 | 22 ft | 4 kts | 283° |
| 2026-05-05 14:50 | 43.66329 | 7.21229 | 22 ft | 1 kts | 261° |
| 2026-05-05 14:58 | 43.66318 | 7.21182 | 21 ft | 12 kts | 232° |
| 2026-05-05 14:58 | 43.66231 | 7.21071 | 21 ft | 21 kts | 227° |
| 2026-05-05 14:58 | 43.66104 | 7.21034 | 22 ft | 21 kts | 170° |
| 2026-05-05 14:58 | 43.65960 | 7.21084 | 22 ft | 22 kts | 152° |
| 2026-05-05 14:59 | 43.65896 | 7.21062 | 21 ft | 8 kts | 219° |
| 2026-05-05 14:59 | 43.65832 | 7.20978 | 21 ft | 24 kts | 225° |
| 2026-05-05 14:59 | 43.65678 | 7.20765 | 21 ft | 35 kts | 224° |
| 2026-05-05 14:59 | 43.65491 | 7.20510 | 20 ft | 40 kts | 225° |
| 2026-05-05 15:00 | 43.65335 | 7.20305 | 20 ft | 7 kts | 209° |
| 2026-05-05 15:00 | 43.65295 | 7.20291 | 20 ft | 12 kts | 176° |
| 2026-05-05 15:00 | 43.65268 | 7.20305 | 21 ft | 0 kts | 147° |
| 2026-05-05 15:01 | 43.65256 | 7.20319 | 20 ft | 10 kts | 140° |
| 2026-05-05 15:01 | 43.65146 | 7.20462 | 21 ft | 26 kts | 152° |
| 2026-05-05 15:01 | 43.65004 | 7.20376 | 21 ft | 25 kts | 216° |
| 2026-05-05 15:02 | 43.64867 | 7.20187 | 21 ft | 26 kts | 224° |
| 2026-05-05 15:02 | 43.64829 | 7.20142 | 21 ft | 8 kts | 212° |
| 2026-05-05 15:02 | 43.64759 | 7.20150 | 22 ft | 1 kts | 143° |
| 2026-05-05 15:02 | 43.64727 | 7.20194 | 22 ft | 15 kts | 132° |
| 2026-05-05 15:03 | 43.64730 | 7.20330 | 24 ft | 17 kts | 46° |
| 2026-05-05 15:03 | 43.64745 | 7.20352 | 23 ft | 4 kts | 45° |
| 2026-05-05 15:03 | 43.64783 | 7.20403 | 23 ft | 5 kts | 44° |
| 2026-05-05 15:03 | 43.64812 | 7.20442 | 23 ft | 27 kts | 45° |
| 2026-05-05 15:04 | 43.65120 | 7.20869 | 21 ft | 96 kts | 45° |
| 2026-05-05 15:04 | 43.65725 | 7.21699 | 28 ft | 147 kts | 45° |
| 2026-05-05 15:04 | 43.66474 | 7.22628 | 655 ft | 139 kts | 44° |
| 2026-05-05 15:04 | 43.67180 | 7.23513 | 1341 ft | 135 kts | 60° |
| 2026-05-05 15:05 | 43.66704 | 7.25752 | 2406 ft | 151 kts | 146° |
| 2026-05-05 15:05 | 43.65742 | 7.26696 | 2812 ft | 174 kts | 146° |
| 2026-05-05 15:05 | 43.64747 | 7.27676 | 3608 ft | 177 kts | 148° |
| 2026-05-05 15:06 | 43.63737 | 7.28643 | 4429 ft | 179 kts | 146° |
| 2026-05-05 15:06 | 43.62723 | 7.29809 | 4876 ft | 205 kts | 140° |
| 2026-05-05 15:06 | 43.61510 | 7.31031 | 4985 ft | 223 kts | 160° |
| 2026-05-05 15:06 | 43.60003 | 7.31368 | 5001 ft | 219 kts | 189° |
| 2026-05-05 15:07 | 43.59033 | 7.30986 | 5011 ft | 219 kts | 209° |
| 2026-05-05 15:07 | 43.57287 | 7.29477 | 5576 ft | 223 kts | 213° |
| 2026-05-05 15:07 | 43.56426 | 7.28733 | 6290 ft | 219 kts | 213° |
| 2026-05-05 15:07 | 43.55311 | 7.27357 | 7295 ft | 216 kts | 237° |
| 2026-05-05 15:08 | 43.54797 | 7.25408 | 8135 ft | 222 kts | 265° |
| 2026-05-05 15:08 | 43.55076 | 7.23301 | 9013 ft | 229 kts | 294° |
| 2026-05-05 15:08 | 43.56015 | 7.21494 | 9892 ft | 235 kts | 306° |
| 2026-05-05 15:08 | 43.57049 | 7.19733 | 10692 ft | 238 kts | 305° |
| 2026-05-05 15:09 | 43.58094 | 7.17940 | 11521 ft | 241 kts | 304° |
| 2026-05-05 15:09 | 43.59142 | 7.16119 | 12335 ft | 244 kts | 303° |
| 2026-05-05 15:09 | 43.60197 | 7.14268 | 13146 ft | 247 kts | 302° |
| 2026-05-05 15:09 | 43.61333 | 7.12457 | 13913 ft | 254 kts | 310° |
| 2026-05-05 15:10 | 43.62713 | 7.10849 | 14521 ft | 267 kts | 314° |
| 2026-05-05 15:10 | 43.64210 | 7.09150 | 14780 ft | 291 kts | 315° |
| 2026-05-05 15:10 | 43.65832 | 7.07296 | 14998 ft | 315 kts | 315° |
| 2026-05-05 15:10 | 43.67581 | 7.05296 | 15207 ft | 338 kts | 315° |
| 2026-05-05 15:11 | 43.69452 | 7.03160 | 15433 ft | 359 kts | 315° |
| 2026-05-05 15:11 | 43.71404 | 7.00938 | 16022 ft | 367 kts | 315° |
| 2026-05-05 15:11 | 43.73384 | 6.98684 | 16763 ft | 371 kts | 315° |
| 2026-05-05 15:11 | 43.75388 | 6.96398 | 17490 ft | 374 kts | 315° |
| 2026-05-05 15:12 | 43.77401 | 6.94092 | 18172 ft | 378 kts | 315° |
| 2026-05-05 15:12 | 43.79438 | 6.91755 | 18775 ft | 382 kts | 315° |
| 2026-05-05 15:12 | 43.81464 | 6.89428 | 19431 ft | 384 kts | 314° |
| 2026-05-05 15:12 | 43.83553 | 6.87027 | 20106 ft | 387 kts | 314° |
| 2026-05-05 15:13 | 43.85636 | 6.84629 | 20731 ft | 390 kts | 314° |
| 2026-05-05 15:13 | 43.87695 | 6.82256 | 21348 ft | 393 kts | 314° |
| 2026-05-05 15:13 | 43.89810 | 6.79817 | 21962 ft | 396 kts | 314° |
| 2026-05-05 15:13 | 43.91968 | 6.77326 | 22541 ft | 400 kts | 313° |
| 2026-05-05 15:14 | 43.94134 | 6.74947 | 23128 ft | 407 kts | 318° |
| 2026-05-05 15:14 | 43.96574 | 6.72854 | 23663 ft | 416 kts | 323° |
| 2026-05-05 15:14 | 43.99088 | 6.70856 | 24208 ft | 417 kts | 323° |
| 2026-05-05 15:14 | 44.01613 | 6.68835 | 24730 ft | 420 kts | 323° |
| 2026-05-05 15:15 | 44.04152 | 6.66796 | 25218 ft | 423 kts | 322° |
| 2026-05-05 15:15 | 44.06717 | 6.64733 | 25703 ft | 426 kts | 322° |
| 2026-05-05 15:15 | 44.09284 | 6.62666 | 26186 ft | 429 kts | 322° |
| 2026-05-05 15:15 | 44.11873 | 6.60577 | 26635 ft | 432 kts | 322° |
| 2026-05-05 15:16 | 44.14492 | 6.58464 | 27065 ft | 435 kts | 322° |
| 2026-05-05 15:16 | 44.17126 | 6.56338 | 27463 ft | 439 kts | 322° |
| 2026-05-05 15:16 | 44.19776 | 6.54196 | 27906 ft | 442 kts | 322° |
| 2026-05-05 15:16 | 44.22446 | 6.52037 | 28338 ft | 445 kts | 321° |
| 2026-05-05 15:17 | 44.25117 | 6.49876 | 28837 ft | 445 kts | 321° |
| 2026-05-05 15:17 | 44.27801 | 6.47701 | 29174 ft | 450 kts | 321° |
| 2026-05-05 15:17 | 44.30526 | 6.45488 | 29563 ft | 453 kts | 321° |
| 2026-05-05 15:17 | 44.33256 | 6.43271 | 29973 ft | 456 kts | 321° |
| 2026-05-05 15:18 | 44.36002 | 6.41037 | 30320 ft | 458 kts | 321° |
| 2026-05-05 15:18 | 44.38770 | 6.38783 | 30672 ft | 462 kts | 321° |
| 2026-05-05 15:18 | 44.41553 | 6.36514 | 31042 ft | 464 kts | 321° |
| 2026-05-05 15:18 | 44.44317 | 6.34252 | 31416 ft | 464 kts | 326° |
| 2026-05-05 15:19 | 44.47115 | 6.31978 | 31778 ft | 464 kts | 321° |
| 2026-05-05 15:19 | 44.49901 | 6.29703 | 32267 ft | 462 kts | 321° |
| 2026-05-05 15:19 | 44.52664 | 6.27408 | 32701 ft | 461 kts | 322° |
| 2026-05-05 15:19 | 44.55445 | 6.25143 | 32995 ft | 463 kts | 321° |
| 2026-05-05 15:20 | 44.58215 | 6.22878 | 33457 ft | 461 kts | 320° |
| 2026-05-05 15:20 | 44.60984 | 6.20606 | 33810 ft | 461 kts | 320° |
| 2026-05-05 15:20 | 44.63748 | 6.18332 | 34147 ft | 459 kts | 320° |
| 2026-05-05 15:20 | 44.66496 | 6.16070 | 34469 ft | 458 kts | 321° |
| 2026-05-05 15:21 | 44.69213 | 6.13830 | 34778 ft | 458 kts | 321° |
| 2026-05-05 15:21 | 44.71959 | 6.11562 | 35083 ft | 458 kts | 321° |
| 2026-05-05 15:21 | 44.74703 | 6.09294 | 35397 ft | 457 kts | 321° |
| 2026-05-05 15:21 | 44.77442 | 6.07027 | 35656 ft | 457 kts | 321° |
| 2026-05-05 15:22 | 44.80184 | 6.04755 | 35925 ft | 457 kts | 321° |
| 2026-05-05 15:22 | 44.82922 | 6.02483 | 36191 ft | 458 kts | 321° |
| 2026-05-05 15:22 | 44.85665 | 6.00205 | 36452 ft | 458 kts | 322° |
| 2026-05-05 15:22 | 44.88415 | 5.97920 | 36686 ft | 459 kts | 322° |
| 2026-05-05 15:23 | 44.91159 | 5.95635 | 37007 ft | 458 kts | 322° |
| 2026-05-05 15:23 | 44.93908 | 5.93344 | 37203 ft | 458 kts | 322° |
| 2026-05-05 15:23 | 44.96645 | 5.91062 | 37469 ft | 457 kts | 322° |
| 2026-05-05 15:23 | 44.99387 | 5.88775 | 37689 ft | 457 kts | 323° |
| 2026-05-05 15:24 | 45.02117 | 5.86494 | 37882 ft | 457 kts | 323° |
| 2026-05-05 15:24 | 45.07583 | 5.81919 | 37898 ft | 455 kts | 323° |
| 2026-05-05 15:25 | 45.12919 | 5.77153 | 37898 ft | 453 kts | 320° |
| 2026-05-05 15:25 | 45.18192 | 5.72249 | 37894 ft | 454 kts | 321° |
| 2026-05-05 15:26 | 45.23494 | 5.67359 | 37891 ft | 454 kts | 321° |
| 2026-05-05 15:26 | 45.28795 | 5.62483 | 37892 ft | 455 kts | 321° |
| 2026-05-05 15:27 | 45.34106 | 5.57591 | 37889 ft | 455 kts | 321° |
| 2026-05-05 15:27 | 45.39417 | 5.52688 | 37888 ft | 455 kts | 321° |
| 2026-05-05 15:28 | 45.44696 | 5.47802 | 37886 ft | 455 kts | 321° |
| 2026-05-05 15:28 | 45.50150 | 5.43150 | 37888 ft | 461 kts | 330° |
| 2026-05-05 15:29 | 45.56061 | 5.39500 | 37888 ft | 463 kts | 332° |
| 2026-05-05 15:29 | 45.61966 | 5.35833 | 37902 ft | 463 kts | 332° |
| 2026-05-05 15:30 | 45.67884 | 5.32154 | 37905 ft | 463 kts | 332° |
| 2026-05-05 15:30 | 45.73800 | 5.28475 | 37913 ft | 463 kts | 332° |
| 2026-05-05 15:31 | 45.79718 | 5.24786 | 37911 ft | 464 kts | 332° |
| 2026-05-05 15:31 | 45.85637 | 5.21088 | 37905 ft | 464 kts | 332° |
| 2026-05-05 15:32 | 45.91556 | 5.17382 | 37903 ft | 464 kts | 332° |
| 2026-05-05 15:32 | 45.97470 | 5.13669 | 37889 ft | 464 kts | 332° |
| 2026-05-05 15:33 | 46.03389 | 5.09945 | 37881 ft | 464 kts | 332° |
| 2026-05-05 15:33 | 46.09293 | 5.06209 | 37874 ft | 463 kts | 332° |
| 2026-05-05 15:34 | 46.15187 | 5.02451 | 37875 ft | 463 kts | 332° |
| 2026-05-05 15:34 | 46.21040 | 4.98714 | 37877 ft | 463 kts | 332° |
| 2026-05-05 15:35 | 46.26919 | 4.94954 | 37872 ft | 463 kts | 332° |
| 2026-05-05 15:35 | 46.32805 | 4.91183 | 37868 ft | 463 kts | 332° |
| 2026-05-05 15:36 | 46.38695 | 4.87399 | 37869 ft | 463 kts | 332° |
| 2026-05-05 15:36 | 46.44577 | 4.83613 | 37864 ft | 463 kts | 332° |
| 2026-05-05 15:37 | 46.50474 | 4.79806 | 37868 ft | 463 kts | 332° |
| 2026-05-05 15:37 | 46.56366 | 4.75994 | 37860 ft | 463 kts | 333° |
| 2026-05-05 15:38 | 46.62259 | 4.72172 | 37857 ft | 464 kts | 333° |
| 2026-05-05 15:38 | 46.68156 | 4.68339 | 37855 ft | 464 kts | 333° |
| 2026-05-05 15:39 | 46.74050 | 4.64500 | 37852 ft | 464 kts | 333° |
| 2026-05-05 15:39 | 46.79907 | 4.60674 | 37848 ft | 464 kts | 333° |
| 2026-05-05 15:40 | 46.85809 | 4.56825 | 37842 ft | 465 kts | 333° |
| 2026-05-05 15:40 | 46.91719 | 4.52989 | 37841 ft | 465 kts | 333° |
| 2026-05-05 15:41 | 46.97630 | 4.49139 | 37839 ft | 465 kts | 333° |
| 2026-05-05 15:41 | 47.03546 | 4.45273 | 37835 ft | 466 kts | 333° |
| 2026-05-05 15:42 | 47.09459 | 4.41400 | 37837 ft | 466 kts | 333° |
| 2026-05-05 15:42 | 47.15376 | 4.37514 | 37829 ft | 466 kts | 333° |
| 2026-05-05 15:43 | 47.21289 | 4.33621 | 37830 ft | 466 kts | 333° |
| 2026-05-05 15:43 | 47.27208 | 4.29715 | 37829 ft | 466 kts | 333° |
| 2026-05-05 15:44 | 47.33080 | 4.25830 | 37819 ft | 466 kts | 333° |
| 2026-05-05 15:44 | 47.39028 | 4.21886 | 37816 ft | 466 kts | 333° |
| 2026-05-05 15:45 | 47.44906 | 4.17978 | 37817 ft | 466 kts | 333° |
| 2026-05-05 15:45 | 47.50053 | 4.14548 | 37814 ft | 464 kts | 333° |
| 2026-05-05 15:49 | 47.50890 | 4.13989 | 37815 ft | 466 kts | 333° |
| 2026-05-05 15:49 | 47.56832 | 4.10021 | 37813 ft | 466 kts | 333° |
| 2026-05-05 15:50 | 47.62702 | 4.06099 | 37808 ft | 466 kts | 333° |
| 2026-05-05 15:50 | 47.68608 | 4.02144 | 37802 ft | 466 kts | 333° |
| 2026-05-05 15:51 | 47.74541 | 3.98160 | 37805 ft | 472 kts | 333° |
| 2026-05-05 15:51 | 47.80586 | 3.94088 | 37800 ft | 481 kts | 333° |
| 2026-05-05 15:52 | 47.86716 | 3.89952 | 37799 ft | 487 kts | 333° |
| 2026-05-05 15:52 | 47.89763 | 3.87894 | 37794 ft | 471 kts | 333° |
| 2026-05-05 15:52 | 47.92688 | 3.85917 | 37795 ft | 454 kts | 333° |
| 2026-05-05 15:53 | 47.98410 | 3.82312 | 37782 ft | 446 kts | 343° |
| 2026-05-05 15:53 | 48.01277 | 3.82215 | 37787 ft | 434 kts | 9° |
| 2026-05-05 15:53 | 48.04200 | 3.82535 | 37793 ft | 427 kts | 353° |
| 2026-05-05 15:53 | 48.07148 | 3.81693 | 37795 ft | 427 kts | 338° |
| 2026-05-05 15:54 | 48.09778 | 3.79797 | 37796 ft | 425 kts | 323° |
| 2026-05-05 15:54 | 48.12023 | 3.76946 | 37800 ft | 424 kts | 310° |
| 2026-05-05 15:54 | 48.13952 | 3.73584 | 37792 ft | 428 kts | 307° |
| 2026-05-05 15:55 | 48.17915 | 3.66797 | 37793 ft | 438 kts | 309° |
| 2026-05-05 15:55 | 48.21980 | 3.59881 | 37794 ft | 447 kts | 310° |
| 2026-05-05 15:56 | 48.26281 | 3.52989 | 37790 ft | 457 kts | 310° |
| 2026-05-05 15:56 | 48.30620 | 3.45969 | 37786 ft | 458 kts | 310° |
| 2026-05-05 15:57 | 48.34927 | 3.38934 | 37787 ft | 457 kts | 310° |
| 2026-05-05 15:57 | 48.38573 | 3.33175 | 37792 ft | 458 kts | 316° |
| 2026-05-05 15:58 | 48.43801 | 3.27656 | 37787 ft | 462 kts | 331° |
| 2026-05-05 15:58 | 48.49694 | 3.23770 | 37790 ft | 462 kts | 335° |
| 2026-05-05 15:59 | 48.55605 | 3.19976 | 37791 ft | 462 kts | 336° |
| 2026-05-05 15:59 | 48.61512 | 3.16182 | 37796 ft | 462 kts | 336° |
| 2026-05-05 16:00 | 48.67421 | 3.12386 | 37795 ft | 461 kts | 336° |
| 2026-05-05 16:00 | 48.73338 | 3.08577 | 37798 ft | 462 kts | 336° |
| 2026-05-05 16:01 | 48.79248 | 3.04761 | 37799 ft | 462 kts | 336° |
| 2026-05-05 16:01 | 48.85113 | 3.00802 | 37801 ft | 461 kts | 330° |
| 2026-05-05 16:02 | 48.90666 | 2.95949 | 37808 ft | 461 kts | 329° |
| 2026-05-05 16:02 | 48.96228 | 2.91105 | 37813 ft | 461 kts | 329° |
| 2026-05-05 16:03 | 49.01753 | 2.86262 | 37824 ft | 461 kts | 329° |
| 2026-05-05 16:03 | 49.07315 | 2.81375 | 37819 ft | 461 kts | 329° |
| 2026-05-05 16:04 | 49.12878 | 2.76475 | 37828 ft | 462 kts | 329° |
| 2026-05-05 16:04 | 49.18442 | 2.71558 | 37825 ft | 462 kts | 329° |
| 2026-05-05 16:05 | 49.24004 | 2.66629 | 37823 ft | 463 kts | 329° |
| 2026-05-05 16:05 | 49.29562 | 2.61692 | 37829 ft | 462 kts | 329° |
| 2026-05-05 16:06 | 49.35124 | 2.56738 | 37831 ft | 463 kts | 329° |
| 2026-05-05 16:06 | 49.40683 | 2.51773 | 37836 ft | 462 kts | 329° |
| 2026-05-05 16:07 | 49.46221 | 2.46815 | 37841 ft | 463 kts | 329° |
| 2026-05-05 16:07 | 49.51786 | 2.41819 | 37843 ft | 463 kts | 329° |
| 2026-05-05 16:08 | 49.57433 | 2.36997 | 37846 ft | 464 kts | 330° |
| 2026-05-05 16:08 | 49.63110 | 2.32249 | 37851 ft | 464 kts | 330° |
| 2026-05-05 16:09 | 49.68773 | 2.27461 | 37844 ft | 464 kts | 330° |
| 2026-05-05 16:09 | 49.74445 | 2.22636 | 37843 ft | 464 kts | 330° |
| 2026-05-05 16:10 | 49.80096 | 2.17813 | 37851 ft | 464 kts | 330° |
| 2026-05-05 16:10 | 49.85749 | 2.12975 | 37847 ft | 464 kts | 329° |
| 2026-05-05 16:11 | 49.91391 | 2.08134 | 37843 ft | 463 kts | 329° |
| 2026-05-05 16:12 | 50.02655 | 1.98431 | 37851 ft | 462 kts | 329° |
| 2026-05-05 16:13 | 50.16582 | 1.85988 | 37860 ft | 459 kts | 322° |
| 2026-05-05 16:13 | 50.21321 | 1.79465 | 37866 ft | 457 kts | 313° |
| 2026-05-05 16:14 | 50.30420 | 1.65637 | 37877 ft | 456 kts | 314° |
| 2026-05-05 16:15 | 50.39476 | 1.51751 | 37883 ft | 456 kts | 313° |
| 2026-05-05 16:16 | 50.48516 | 1.37799 | 37880 ft | 456 kts | 313° |
| 2026-05-05 16:17 | 50.55061 | 1.26934 | 37889 ft | 454 kts | 310° |
| 2026-05-05 16:18 | 50.61367 | 1.15786 | 37665 ft | 458 kts | 299° |
| 2026-05-05 16:18 | 50.65636 | 1.08327 | 35724 ft | 460 kts | 304° |
| 2026-05-05 16:19 | 50.67888 | 1.04717 | 34359 ft | 464 kts | 306° |
| 2026-05-05 16:19 | 50.70095 | 1.02105 | 32923 ft | 464 kts | 54° |
| 2026-05-05 16:19 | 50.74811 | 1.09210 | 30670 ft | 471 kts | 31° |
| 2026-05-05 16:20 | 50.80814 | 1.12550 | 28869 ft | 457 kts | 6° |
| 2026-05-05 16:20 | 50.86975 | 1.11503 | 27020 ft | 441 kts | 338° |
| 2026-05-05 16:21 | 50.91911 | 1.06298 | 25319 ft | 421 kts | 309° |
| 2026-05-05 16:22 | 50.94690 | 0.93887 | 23040 ft | 399 kts | 270° |
| 2026-05-05 16:22 | 50.94705 | 0.85147 | 21722 ft | 394 kts | 268° |
| 2026-05-05 16:23 | 50.94650 | 0.76489 | 20475 ft | 389 kts | 268° |
| 2026-05-05 16:23 | 50.94621 | 0.72249 | 19879 ft | 386 kts | 269° |
| 2026-05-05 16:23 | 50.95596 | 0.63987 | 18729 ft | 382 kts | 295° |
| 2026-05-05 16:24 | 50.96940 | 0.60383 | 18182 ft | 379 kts | 306° |
| 2026-05-05 16:24 | 50.98586 | 0.57138 | 17697 ft | 376 kts | 311° |
| 2026-05-05 16:24 | 51.02145 | 0.51221 | 16581 ft | 369 kts | 315° |
| 2026-05-05 16:25 | 51.03972 | 0.48304 | 16042 ft | 367 kts | 315° |
| 2026-05-05 16:25 | 51.07536 | 0.42588 | 14991 ft | 361 kts | 316° |
| 2026-05-05 16:25 | 51.09342 | 0.39812 | 14471 ft | 359 kts | 317° |
| 2026-05-05 16:26 | 51.12919 | 0.34430 | 13436 ft | 353 kts | 317° |
| 2026-05-05 16:26 | 51.16432 | 0.29102 | 12396 ft | 346 kts | 316° |
| 2026-05-05 16:27 | 51.18161 | 0.26462 | 11883 ft | 343 kts | 316° |
| 2026-05-05 16:27 | 51.19873 | 0.23841 | 11363 ft | 340 kts | 316° |
| 2026-05-05 16:27 | 51.21571 | 0.21238 | 10849 ft | 337 kts | 316° |
| 2026-05-05 16:27 | 51.23252 | 0.18657 | 10236 ft | 337 kts | 316° |
| 2026-05-05 16:28 | 51.24920 | 0.16094 | 9772 ft | 331 kts | 315° |
| 2026-05-05 16:28 | 51.26548 | 0.13589 | 9612 ft | 317 kts | 315° |
| 2026-05-05 16:28 | 51.28101 | 0.11196 | 9451 ft | 303 kts | 315° |
| 2026-05-05 16:28 | 51.29585 | 0.08906 | 9328 ft | 290 kts | 315° |
| 2026-05-05 16:29 | 51.31014 | 0.06698 | 9067 ft | 283 kts | 315° |
| 2026-05-05 16:29 | 51.32345 | 0.04404 | 8653 ft | 281 kts | 303° |
| 2026-05-05 16:29 | 51.33145 | 0.01594 | 8255 ft | 278 kts | 283° |
| 2026-05-05 16:29 | 51.33369 | -0.01454 | 8001 ft | 272 kts | 275° |
| 2026-05-05 16:30 | 51.33525 | -0.04512 | 7944 ft | 279 kts | 275° |
| 2026-05-05 16:30 | 51.33693 | -0.07592 | 7940 ft | 278 kts | 275° |
| 2026-05-05 16:30 | 51.33861 | -0.10632 | 7940 ft | 278 kts | 275° |
| 2026-05-05 16:30 | 51.34031 | -0.13709 | 7939 ft | 278 kts | 275° |
| 2026-05-05 16:31 | 51.34199 | -0.16786 | 7936 ft | 278 kts | 275° |
| 2026-05-05 16:31 | 51.34366 | -0.19869 | 7936 ft | 278 kts | 275° |
| 2026-05-05 16:31 | 51.34532 | -0.22951 | 7940 ft | 278 kts | 275° |
| 2026-05-05 16:31 | 51.34697 | -0.26035 | 7931 ft | 279 kts | 275° |
| 2026-05-05 16:32 | 51.34862 | -0.29119 | 7942 ft | 278 kts | 275° |
| 2026-05-05 16:32 | 51.35027 | -0.32216 | 7941 ft | 279 kts | 275° |
| 2026-05-05 16:32 | 51.35189 | -0.35284 | 7938 ft | 279 kts | 275° |
| 2026-05-05 16:32 | 51.35351 | -0.38372 | 7935 ft | 276 kts | 275° |
| 2026-05-05 16:33 | 51.35512 | -0.41444 | 7941 ft | 276 kts | 275° |
| 2026-05-05 16:33 | 51.35667 | -0.44432 | 7936 ft | 254 kts | 275° |
| 2026-05-05 16:33 | 51.35807 | -0.47136 | 7938 ft | 232 kts | 275° |
| 2026-05-05 16:33 | 51.35933 | -0.49574 | 7933 ft | 209 kts | 275° |
| 2026-05-05 16:34 | 51.36052 | -0.51896 | 7943 ft | 223 kts | 274° |
| 2026-05-05 16:34 | 51.36178 | -0.54356 | 7931 ft | 214 kts | 274° |
| 2026-05-05 16:34 | 51.36296 | -0.56668 | 7727 ft | 206 kts | 275° |
| 2026-05-05 16:34 | 51.36411 | -0.58954 | 7336 ft | 207 kts | 275° |
| 2026-05-05 16:35 | 51.36526 | -0.61252 | 7053 ft | 206 kts | 275° |
| 2026-05-05 16:35 | 51.36641 | -0.63533 | 6773 ft | 205 kts | 275° |
| 2026-05-05 16:35 | 51.36999 | -0.65709 | 6468 ft | 204 kts | 304° |
| 2026-05-05 16:35 | 51.37788 | -0.67584 | 6196 ft | 203 kts | 302° |
| 2026-05-05 16:36 | 51.38503 | -0.69526 | 5938 ft | 202 kts | 301° |
| 2026-05-05 16:36 | 51.39207 | -0.71474 | 5655 ft | 202 kts | 301° |
| 2026-05-05 16:36 | 51.39905 | -0.73415 | 5378 ft | 201 kts | 301° |
| 2026-05-05 16:36 | 51.40599 | -0.75354 | 5102 ft | 200 kts | 301° |
| 2026-05-05 16:37 | 51.41294 | -0.77290 | 4830 ft | 200 kts | 303° |
| 2026-05-05 16:37 | 51.42297 | -0.78748 | 4515 ft | 196 kts | 340° |
| 2026-05-05 16:37 | 51.43622 | -0.78925 | 4211 ft | 193 kts | 17° |
| 2026-05-05 16:37 | 51.44715 | -0.77757 | 3913 ft | 192 kts | 54° |
| 2026-05-05 16:38 | 51.45393 | -0.75930 | 3734 ft | 186 kts | 60° |
| 2026-05-05 16:38 | 51.45978 | -0.74189 | 3663 ft | 170 kts | 60° |
| 2026-05-05 16:38 | 51.46516 | -0.72577 | 3578 ft | 158 kts | 60° |
| 2026-05-05 16:38 | 51.47004 | -0.71097 | 3478 ft | 147 kts | 61° |
| 2026-05-05 16:39 | 51.47406 | -0.69620 | 3302 ft | 144 kts | 71° |
| 2026-05-05 16:39 | 51.47604 | -0.68031 | 3010 ft | 149 kts | 81° |
| 2026-05-05 16:39 | 51.47669 | -0.66338 | 2676 ft | 156 kts | 86° |
| 2026-05-05 16:39 | 51.47688 | -0.64574 | 2321 ft | 161 kts | 86° |
| 2026-05-05 16:40 | 51.47695 | -0.62792 | 1972 ft | 155 kts | 86° |
| 2026-05-05 16:40 | 51.47701 | -0.61127 | 1679 ft | 142 kts | 86° |
| 2026-05-05 16:40 | 51.47706 | -0.59615 | 1466 ft | 130 kts | 87° |
| 2026-05-05 16:40 | 51.47713 | -0.58198 | 1289 ft | 130 kts | 86° |
| 2026-05-05 16:41 | 51.47719 | -0.56730 | 1112 ft | 132 kts | 86° |
| 2026-05-05 16:41 | 51.47723 | -0.55286 | 935 ft | 130 kts | 86° |
| 2026-05-05 16:41 | 51.47729 | -0.53875 | 760 ft | 132 kts | 86° |
| 2026-05-05 16:41 | 51.47734 | -0.52337 | 582 ft | 132 kts | 86° |
| 2026-05-05 16:42 | 51.47740 | -0.50845 | 406 ft | 134 kts | 86° |
| 2026-05-05 16:42 | 51.47745 | -0.49362 | 243 ft | 136 kts | 86° |
| 2026-05-05 16:42 | 51.47752 | -0.47833 | 97 ft | 135 kts | 86° |
| 2026-05-05 16:42 | 51.47763 | -0.46508 | 89 ft | 94 kts | 89° |
| 2026-05-05 16:43 | 51.47762 | -0.45755 | 84 ft | 48 kts | 89° |
| 2026-05-05 16:43 | 51.47758 | -0.45588 | 87 ft | 28 kts | 95° |
| 2026-05-05 16:43 | 51.47690 | -0.45465 | 87 ft | 27 kts | 170° |
| 2026-05-05 16:43 | 51.47488 | -0.45517 | 91 ft | 18 kts | 227° |
| 2026-05-05 16:44 | 51.47482 | -0.45546 | 91 ft | 5 kts | 276° |
| 2026-05-05 16:44 | 51.47501 | -0.45665 | 89 ft | 6 kts | 287° |
| 2026-05-05 16:44 | 51.47516 | -0.45801 | 86 ft | 30 kts | 272° |
| 2026-05-05 16:44 | 51.47517 | -0.46261 | 86 ft | 41 kts | 271° |
| 2026-05-05 16:45 | 51.47515 | -0.46582 | 86 ft | 28 kts | 271° |
| 2026-05-05 16:45 | 51.47493 | -0.46861 | 86 ft | 24 kts | 271° |
| 2026-05-05 16:45 | 51.47492 | -0.47148 | 86 ft | 27 kts | 269° |
| 2026-05-05 16:45 | 51.47491 | -0.47457 | 86 ft | 29 kts | 269° |
| 2026-05-05 16:46 | 51.47491 | -0.47672 | 86 ft | 30 kts | 269° |
| 2026-05-05 16:46 | 51.47489 | -0.48017 | 86 ft | 31 kts | 270° |
| 2026-05-05 16:46 | 51.47488 | -0.48239 | 87 ft | 16 kts | 269° |
| 2026-05-05 16:46 | 51.47482 | -0.48436 | 88 ft | 18 kts | 249° |
| 2026-05-05 16:47 | 51.47397 | -0.48475 | 86 ft | 14 kts | 180° |
| 2026-05-05 16:47 | 51.47361 | -0.48539 | 86 ft | 8 kts | 273° |
| 2026-05-05 16:47 | 51.47360 | -0.48572 | 87 ft | 0 kts | 268° |